Time;durP1;ratioP1;P1;durP2;ratioP2;P2;SDS_P1;SDS_P2;PMS_P1;PMS_P2;Temp;Humidity;BMP_temperature;BMP_pressure;BME280_temperature;BME280_humidity;BME280_pressure;Samples;Min_cycle;Max_cycle;Signal;HPM_P1;HPM_P2
2022/04/21 00:00:00;;;;;;;5.82;3.80;;;;;;;8.04;49.14;100833.03;696213;28;1275;-81
2022/04/21 00:00:20;;;;;;;4.90;3.53;;;;;;;8.11;48.99;100844.53;690590;28;1020;-81
2022/04/21 00:00:42;;;;;;;4.95;3.40;;;;;;;8.03;49.46;100833.81;687839;28;1304;-81
2022/04/21 00:01:03;;;;;;;3.90;3.50;;;;;;;8.01;48.81;100828.59;693670;28;1325;-81
2022/04/21 00:01:23;;;;;;;3.78;3.47;;;;;;;7.98;49.69;100827.56;693004;28;1215;-81
2022/04/21 00:01:44;;;;;;;4.00;3.60;;;;;;;7.98;49.31;100830.19;687646;28;1352;-81
2022/04/21 00:02:04;;;;;;;4.07;3.67;;;;;;;8.02;49.16;100832.06;690576;28;1396;-81
2022/04/21 00:02:25;;;;;;;5.93;3.97;;;;;;;8.02;49.13;100839.84;686189;28;1533;-81
2022/04/21 00:02:46;;;;;;;6.47;4.20;;;;;;;7.92;49.64;100816.09;690645;28;1069;-83
2022/04/21 00:03:07;;;;;;;7.72;4.38;;;;;;;7.98;49.63;100838.84;693384;28;1025;-81
2022/04/21 00:03:28;;;;;;;6.10;4.45;;;;;;;7.92;49.43;100829.09;688742;28;1270;-81
2022/04/21 00:03:48;;;;;;;6.28;4.45;;;;;;;7.99;50.09;100842.34;690677;28;957;-81
2022/04/21 00:04:09;;;;;;;5.70;4.40;;;;;;;7.88;49.68;100821.13;687813;28;1585;-81
2022/04/21 00:04:30;;;;;;;5.45;4.30;;;;;;;7.88;50.19;100826.31;690512;28;1388;-81
2022/04/21 00:04:51;;;;;;;5.32;4.22;;;;;;;7.92;50.29;100831.69;690720;28;914;-81
2022/04/21 00:05:12;;;;;;;5.23;4.23;;;;;;;7.87;49.73;100825.41;687950;28;1232;-81
2022/04/21 00:05:34;;;;;;;5.32;4.10;;;;;;;7.94;50.17;100840.44;687822;28;1969;-81
2022/04/21 00:05:55;;;;;;;4.68;3.90;;;;;;;7.83;49.67;100813.16;689493;28;812;-81
2022/04/21 00:06:16;;;;;;;4.37;3.97;;;;;;;7.89;50.12;100828.09;690671;28;956;-82
2022/04/21 00:06:37;;;;;;;4.05;3.75;;;;;;;7.81;50.11;100820.88;693084;28;1171;-81
2022/04/21 00:06:57;;;;;;;4.27;3.97;;;;;;;7.82;50.53;100824.38;687901;28;1165;-81
2022/04/21 00:07:17;;;;;;;4.53;4.13;;;;;;;7.80;50.41;100823.44;687898;28;1044;-81
2022/04/21 00:07:39;;;;;;;5.37;4.20;;;;;;;7.87;50.27;100835.81;689513;28;1179;-81
2022/04/21 00:08:00;;;;;;;5.70;3.80;;;;;;;7.79;50.38;100826.81;689833;28;1774;-81
2022/04/21 00:08:20;;;;;;;5.25;3.58;;;;;;;7.77;50.32;100820.69;685124;28;1186;-82
2022/04/21 00:08:41;;;;;;;4.17;3.73;;;;;;;7.83;50.35;100831.31;692815;28;1135;-81
2022/04/21 00:09:02;;;;;;;4.30;3.90;;;;;;;7.82;50.25;100839.97;690375;28;1368;-81
2022/04/21 00:09:22;;;;;;;3.90;3.60;;;;;;;7.72;50.39;100819.59;685134;28;1150;-81
2022/04/21 00:09:43;;;;;;;3.90;3.60;;;;;;;7.78;50.55;100836.34;684457;28;1134;-82
2022/04/21 00:10:05;;;;;;;3.88;3.58;;;;;;;7.77;50.36;100833.69;685115;28;1424;-81
2022/04/21 00:10:27;;;;;;;4.07;3.70;;;;;;;7.77;50.66;100839.78;690261;28;1344;-81
2022/04/21 00:10:47;;;;;;;4.07;3.78;;;;;;;7.67;50.76;100827.22;686359;28;1453;-81
2022/04/21 00:11:08;;;;;;;4.10;3.75;;;;;;;7.65;50.68;100819.38;693324;28;1276;-81
2022/04/21 00:11:28;;;;;;;4.20;3.80;;;;;;;7.72;50.96;100835.19;693109;28;1649;-81
2022/04/21 00:11:49;;;;;;;5.30;3.70;;;;;;;7.67;50.38;100830.72;690707;28;1395;-82
2022/04/21 00:12:10;;;;;;;5.60;4.03;;;;;;;7.65;50.58;100823.66;690607;28;1045;-82
2022/04/21 00:12:31;;;;;;;5.10;3.95;;;;;;;7.64;50.89;100817.59;689650;28;1012;-81
2022/04/21 00:12:54;;;;;;;5.20;4.30;;;;;;;7.65;50.75;100828.88;690693;28;832;-81
2022/04/21 00:13:14;;;;;;;5.10;4.10;;;;;;;7.62;50.86;100821.84;693450;28;1068;-82
2022/04/21 00:13:36;;;;;;;6.80;4.37;;;;;;;7.66;50.90;100836.72;689759;28;1448;-81
2022/04/21 00:13:57;;;;;;;5.63;4.10;;;;;;;7.63;50.82;100828.78;686042;28;912;-81
2022/04/21 00:14:17;;;;;;;7.47;4.13;;;;;;;7.63;50.78;100825.31;690628;28;977;-81
2022/04/21 00:14:38;;;;;;;5.60;3.90;;;;;;;7.55;51.15;100819.81;689895;28;2098;-81
2022/04/21 00:14:59;;;;;;;5.20;3.80;;;;;;;7.56;50.92;100824.19;696216;28;747;-81
2022/04/21 00:15:19;;;;;;;3.97;3.67;;;;;;;7.58;51.16;100830.34;695715;28;1412;-81
2022/04/21 00:15:42;;;;;;;3.90;3.50;;;;;;;7.56;50.99;100831.09;687192;28;1231;-82
2022/04/21 00:16:03;;;;;;;4.00;3.60;;;;;;;7.54;50.71;100825.81;685235;28;1230;-81
2022/04/21 00:16:32;;;;;;;4.82;3.70;;;;;;;7.49;51.05;100822.16;687811;28;1245;-81
2022/04/21 00:16:54;;;;;;;4.78;3.80;;;;;;;7.50;51.15;100818.75;693017;28;829;-81
2022/04/21 00:17:15;;;;;;;4.57;3.97;;;;;;;7.53;51.06;100826.66;691890;28;1360;-81
2022/04/21 00:17:36;;;;;;;4.90;4.47;;;;;;;7.53;51.08;100830.16;692483;28;1175;-81
2022/04/21 00:17:58;;;;;;;4.68;4.20;;;;;;;7.54;51.36;100842.31;696029;28;1338;-81
2022/04/21 00:18:19;;;;;;;4.60;4.20;;;;;;;7.47;51.48;100827.28;690598;28;1092;-81
2022/04/21 00:18:39;;;;;;;4.20;3.80;;;;;;;7.48;51.24;100828.16;690115;28;1229;-81
2022/04/21 00:19:00;;;;;;;4.90;4.10;;;;;;;7.52;51.21;100832.66;684817;28;1261;-81
2022/04/21 00:19:20;;;;;;;4.45;3.85;;;;;;;7.50;51.39;100837.78;685212;28;1267;-81
2022/04/21 00:19:41;;;;;;;4.20;3.80;;;;;;;7.52;51.29;100837.88;689421;28;1228;-81
2022/04/21 00:20:02;;;;;;;3.92;3.63;;;;;;;7.43;51.70;100820.19;693265;28;1235;-81
2022/04/21 00:20:22;;;;;;;4.30;3.75;;;;;;;7.46;51.28;100832.41;690512;28;1339;-81
2022/04/21 00:20:43;;;;;;;4.83;4.10;;;;;;;7.46;51.56;100833.31;685148;28;1061;-81
2022/04/21 00:21:04;;;;;;;5.15;4.50;;;;;;;7.47;51.34;100832.47;685129;28;1184;-81
2022/04/21 00:23:26;;;;;;;4.68;4.28;;;;;;;7.42;51.63;100831.41;687592;28;1291;-81
2022/04/21 00:23:29;;;;;;;4.00;3.60;;;;;;;7.35;51.56;100819.88;685087;28;1203;-81
2022/04/21 00:23:49;;;;;;;4.40;4.00;;;;;;;7.40;51.92;100838.25;682722;28;1211;-81
2022/04/21 00:24:10;;;;;;;4.40;4.00;;;;;;;7.37;51.69;100823.41;685257;28;1172;-81
2022/04/21 00:24:30;;;;;;;4.53;4.13;;;;;;;7.33;51.67;100818.03;687527;28;1267;-84
2022/04/21 00:24:51;;;;;;;4.35;3.95;;;;;;;7.38;51.96;100827.78;690654;28;1232;-84
2022/04/21 00:25:12;;;;;;;4.22;3.83;;;;;;;7.37;51.97;100828.59;690520;28;1155;-83
2022/04/21 00:25:33;;;;;;;4.00;3.60;;;;;;;7.38;51.90;100829.50;689080;28;1938;-81
2022/04/21 00:25:55;;;;;;;4.18;3.70;;;;;;;7.31;51.56;100825.75;685151;28;1186;-81
2022/04/21 00:26:16;;;;;;;4.20;3.80;;;;;;;7.37;51.56;100833.81;687798;28;1168;-81
2022/04/21 00:26:37;;;;;;;4.30;3.90;;;;;;;7.30;51.80;100820.50;687811;28;1144;-83
2022/04/21 00:26:57;;;;;;;4.40;4.00;;;;;;;7.32;51.66;100822.34;688669;28;1297;-84
2022/04/21 00:27:18;;;;;;;5.63;4.00;;;;;;;7.34;51.91;100831.09;690687;28;973;-84
2022/04/21 00:27:39;;;;;;;5.70;4.00;;;;;;;7.26;51.71;100816.91;690483;28;1193;-83
2022/04/21 00:28:00;;;;;;;7.22;3.88;;;;;;;7.24;51.79;100816.81;685151;28;1187;-84
2022/04/21 00:28:21;;;;;;;5.40;4.00;;;;;;;7.26;51.97;100820.38;684629;28;1187;-84
2022/04/21 00:28:42;;;;;;;5.38;3.78;;;;;;;7.30;52.17;100830.91;687716;28;1737;-81
2022/04/21 00:29:02;;;;;;;4.40;3.97;;;;;;;7.29;52.11;100829.13;690497;28;1148;-84
2022/04/21 00:29:23;;;;;;;5.65;3.90;;;;;;;7.24;51.67;100821.13;692461;28;1488;-83
2022/04/21 00:29:44;;;;;;;5.60;4.07;;;;;;;7.20;51.57;100819.22;692405;28;1535;-83
2022/04/21 00:30:06;;;;;;;5.07;3.80;;;;;;;7.24;51.93;100821.13;690654;28;1052;-84
2022/04/21 00:30:27;;;;;;;4.00;3.70;;;;;;;7.18;51.91;100823.47;690567;28;1150;-83
2022/04/21 00:30:48;;;;;;;4.20;3.80;;;;;;;7.19;51.98;100820.06;686634;28;1505;-83
2022/04/21 00:31:08;;;;;;;4.40;4.00;;;;;;;7.19;51.72;100820.06;688408;28;1214;-83
2022/04/21 00:31:29;;;;;;;4.67;4.27;;;;;;;7.15;52.20;100818.13;690680;28;1103;-84
2022/04/21 00:31:49;;;;;;;4.90;4.30;;;;;;;7.10;52.17;100812.75;692069;28;1058;-83
2022/04/21 00:32:10;;;;;;;4.67;4.00;;;;;;;7.10;52.18;100815.34;687811;28;1078;-83
2022/04/21 00:32:31;;;;;;;4.50;3.90;;;;;;;7.08;52.12;100811.81;689172;28;1257;-84
2022/04/21 00:32:51;;;;;;;4.05;3.65;;;;;;;7.16;52.19;100832.88;687875;28;1556;-84
2022/04/21 00:33:12;;;;;;;4.43;3.70;;;;;;;7.16;52.13;100828.59;690174;28;1078;-83
2022/04/21 00:33:32;;;;;;;4.03;3.45;;;;;;;7.10;52.39;100821.44;687354;28;1272;-83
2022/04/21 00:33:53;;;;;;;4.67;3.90;;;;;;;7.13;52.51;100826.75;687874;28;1241;-83
2022/04/21 00:34:13;;;;;;;4.30;3.90;;;;;;;7.07;52.52;100816.09;685226;28;1182;-83
2022/04/21 00:34:34;;;;;;;4.40;4.00;;;;;;;7.06;52.46;100813.44;688405;28;1270;-84
2022/04/21 00:34:55;;;;;;;4.50;3.67;;;;;;;7.08;52.54;100817.91;690676;28;823;-83
2022/04/21 00:35:17;;;;;;;5.33;3.80;;;;;;;7.03;52.31;100811.59;690477;28;1180;-84
2022/04/21 00:35:37;;;;;;;6.65;4.30;;;;;;;7.09;52.21;100816.16;685470;28;1265;-83
2022/04/21 00:35:58;;;;;;;5.43;4.50;;;;;;;7.05;52.87;100819.47;693295;28;1144;-84
2022/04/21 00:36:18;;;;;;;9.05;4.20;;;;;;;7.09;52.82;100824.84;687647;28;1249;-83
2022/04/21 00:36:39;;;;;;;12.60;3.90;;;;;;;7.03;52.98;100816.78;690133;28;1168;-83
2022/04/21 00:37:00;;;;;;;14.43;3.60;;;;;;;6.97;52.58;100812.22;685321;28;1149;-84
2022/04/21 00:37:20;;;;;;;10.40;3.80;;;;;;;7.02;52.75;100828.00;688329;28;1567;-83
2022/04/21 00:37:55;;;;;;;4.77;3.80;;;;;;;7.00;52.90;100819.25;690581;28;1347;-84
2022/04/21 00:38:15;;;;;;;6.75;3.83;;;;;;;6.94;52.80;100816.41;693305;28;945;-84
2022/04/21 00:38:36;;;;;;;7.23;4.00;;;;;;;6.98;52.82;100826.06;691483;28;1171;-84
2022/04/21 00:38:56;;;;;;;6.90;3.87;;;;;;;6.99;53.15;100827.84;685151;28;1249;-83
2022/04/21 00:39:17;;;;;;;5.55;3.90;;;;;;;6.98;52.93;100834.75;690489;28;1259;-84
2022/04/21 00:39:38;;;;;;;5.47;3.67;;;;;;;6.97;52.85;100832.09;691972;28;1152;-84
2022/04/21 00:39:59;;;;;;;5.55;3.92;;;;;;;6.97;52.96;100826.91;687934;28;1212;-84
2022/04/21 00:40:23;;;;;;;5.97;4.00;;;;;;;6.94;53.20;100826.78;685108;28;1283;-83
2022/04/21 00:40:43;;;;;;;5.90;3.65;;;;;;;6.99;52.94;100830.44;687842;28;1373;-84
2022/04/21 00:41:04;;;;;;;5.93;3.63;;;;;;;6.97;53.37;100829.50;688179;28;1746;-83
2022/04/21 00:41:24;;;;;;;4.70;3.90;;;;;;;6.96;53.34;100831.22;690336;28;1346;-83
2022/04/21 00:41:45;;;;;;;4.72;3.97;;;;;;;7.01;53.25;100826.22;695982;28;1060;-84
2022/04/21 00:42:06;;;;;;;5.10;4.07;;;;;;;6.98;53.30;100823.47;696090;28;1015;-84
2022/04/21 00:42:27;;;;;;;5.00;3.90;;;;;;;6.96;53.15;100814.75;687678;28;1317;-83
2022/04/21 00:42:48;;;;;;;5.90;4.18;;;;;;;6.97;53.00;100819.13;693225;28;1170;-83
2022/04/21 00:43:08;;;;;;;5.60;4.20;;;;;;;6.98;53.20;100820.88;693350;28;1080;-83
2022/04/21 00:43:30;;;;;;;5.00;4.17;;;;;;;6.96;53.27;100818.25;687060;28;1257;-84
2022/04/21 00:43:50;;;;;;;4.60;3.90;;;;;;;6.92;53.14;100812.84;690531;28;1465;-84
2022/04/21 00:44:11;;;;;;;4.23;3.73;;;;;;;7.01;52.93;100828.81;693133;28;1124;-83
2022/04/21 00:44:31;;;;;;;4.00;3.70;;;;;;;6.93;53.27;100819.81;691928;28;1250;-83
2022/04/21 00:44:52;;;;;;;4.17;3.80;;;;;;;6.91;53.68;100822.34;688911;28;803;-83
2022/04/21 00:45:13;;;;;;;4.50;4.10;;;;;;;7.00;53.08;100832.22;690430;28;1123;-83
2022/04/21 00:45:33;;;;;;;4.57;4.18;;;;;;;6.99;53.26;100830.44;691166;28;1912;-83
2022/04/21 00:45:56;;;;;;;5.70;4.30;;;;;;;6.92;53.07;100823.22;692824;28;1556;-83
2022/04/21 00:46:22;;;;;;;6.35;4.40;;;;;;;7.01;53.60;100839.22;693329;28;1067;-84
2022/04/21 00:46:42;;;;;;;6.40;4.30;;;;;;;6.91;53.12;100821.44;690457;28;1145;-84
2022/04/21 00:47:05;;;;;;;4.50;4.10;;;;;;;6.93;53.08;100819.81;690610;28;1009;-83
2022/04/21 00:47:26;;;;;;;4.15;3.75;;;;;;;6.93;53.46;100820.69;687787;28;1210;-84
2022/04/21 00:47:47;;;;;;;4.20;3.80;;;;;;;7.01;53.22;100833.13;687798;28;968;-83
2022/04/21 00:48:07;;;;;;;4.10;3.70;;;;;;;6.87;53.48;100807.44;687801;28;1209;-84
2022/04/21 00:48:29;;;;;;;4.30;3.90;;;;;;;6.96;53.48;100818.25;685900;28;1156;-84
2022/04/21 00:48:50;;;;;;;5.80;4.15;;;;;;;6.93;53.31;100817.22;687868;28;1198;-83
2022/04/21 00:49:12;;;;;;;5.85;4.20;;;;;;;6.90;53.40;100809.28;685059;28;1095;-84
2022/04/21 00:49:33;;;;;;;6.22;4.22;;;;;;;6.97;53.35;100819.13;691887;28;1267;-84
2022/04/21 00:49:54;;;;;;;5.55;4.30;;;;;;;6.96;52.99;100814.75;693009;28;1285;-84
2022/04/21 00:50:22;;;;;;;4.80;4.30;;;;;;;6.92;53.31;100810.22;685199;28;1306;-83
2022/04/21 00:50:43;;;;;;;4.50;3.80;;;;;;;6.96;53.41;100814.75;688010;28;2090;-84
2022/04/21 00:51:04;;;;;;;4.20;3.80;;;;;;;6.97;53.07;100813.94;694938;28;1579;-84
2022/04/21 00:51:24;;;;;;;4.43;3.88;;;;;;;6.95;53.15;100816.44;693243;28;1467;-83
2022/04/21 00:51:45;;;;;;;5.13;4.30;;;;;;;6.88;53.04;100809.22;687827;28;1186;-83
2022/04/21 00:52:07;;;;;;;5.32;4.45;;;;;;;6.90;53.03;100809.28;687886;28;1068;-84
2022/04/21 00:52:27;;;;;;;5.70;4.38;;;;;;;6.91;53.17;100811.06;692398;28;1103;-83
2022/04/21 00:52:49;;;;;;;5.00;4.03;;;;;;;6.90;53.22;100815.38;689714;28;1754;-84
2022/04/21 00:53:10;;;;;;;4.82;3.70;;;;;;;6.88;53.26;100811.81;690727;28;1395;-84
2022/04/21 00:53:30;;;;;;;4.10;3.70;;;;;;;6.91;53.25;100821.44;685160;28;1280;-84
2022/04/21 00:53:51;;;;;;;3.92;3.63;;;;;;;6.87;53.06;100809.16;685125;28;1396;-84
2022/04/21 00:54:11;;;;;;;4.22;3.85;;;;;;;6.93;53.29;100822.41;687641;28;1397;-84
2022/04/21 00:54:47;;;;;;;3.80;3.50;;;;;;;6.86;53.38;100813.47;690264;28;1067;-84
2022/04/21 00:55:16;;;;;;;3.80;3.50;;;;;;;6.91;53.31;100822.34;687851;28;1759;-84
2022/04/21 00:55:38;;;;;;;4.00;3.70;;;;;;;6.87;53.25;100811.75;692433;28;1281;-84
2022/04/21 00:56:01;;;;;;;4.70;4.00;;;;;;;6.88;53.25;100813.53;693262;28;1317;-84
2022/04/21 00:56:22;;;;;;;6.90;3.88;;;;;;;6.80;53.26;100803.69;687657;28;1406;-83
2022/04/21 00:56:44;;;;;;;6.85;3.97;;;;;;;6.80;53.10;100811.47;685101;28;1163;-83
2022/04/21 00:57:05;;;;;;;5.40;3.88;;;;;;;6.80;53.53;100806.31;687776;28;1211;-83
2022/04/21 00:57:27;;;;;;;4.57;4.03;;;;;;;6.81;53.20;100804.59;690562;28;1626;-84
2022/04/21 00:57:50;;;;;;;5.40;4.30;;;;;;;6.88;53.29;100824.78;687744;28;1514;-83
2022/04/21 00:58:11;;;;;;;4.40;3.97;;;;;;;6.80;53.44;100808.91;687481;28;1228;-83
2022/04/21 00:58:31;;;;;;;4.38;3.92;;;;;;;6.77;53.48;100806.19;687311;28;1310;-83
2022/04/21 00:58:53;;;;;;;4.25;3.85;;;;;;;6.79;53.55;100812.31;687758;28;787;-84
2022/04/21 00:59:13;;;;;;;4.55;4.10;;;;;;;6.76;53.44;100806.97;684926;28;1126;-83
2022/04/21 00:59:34;;;;;;;4.65;4.15;;;;;;;6.83;53.62;100827.16;681936;28;1231;-83
2022/04/21 00:59:55;;;;;;;5.47;4.30;;;;;;;6.75;53.30;100806.91;684998;28;811;-83
2022/04/21 01:00:16;;;;;;;6.25;4.35;;;;;;;6.82;53.60;100817.63;690225;28;1203;-84
2022/04/21 01:00:36;;;;;;;6.10;4.07;;;;;;;6.77;53.25;100813.97;693091;28;1187;-84
2022/04/21 01:00:57;;;;;;;5.65;3.97;;;;;;;6.73;53.14;100808.56;693408;28;755;-83
2022/04/21 01:02:46;;;;;;;6.00;4.68;;;;;;;6.74;53.27;100803.44;690023;28;943;-83
2022/04/21 01:03:07;;;;;;;6.15;4.60;;;;;;;6.78;53.35;100820.00;690443;28;1271;-84
2022/04/21 01:03:28;;;;;;;6.38;4.70;;;;;;;6.74;53.55;100805.16;687661;28;1600;-84
2022/04/21 01:03:49;;;;;;;5.80;4.60;;;;;;;6.70;53.33;100801.50;687776;28;1579;-83
2022/04/21 01:04:10;;;;;;;6.20;4.30;;;;;;;6.71;53.27;100795.53;690493;28;1279;-83
2022/04/21 01:04:31;;;;;;;5.47;4.22;;;;;;;6.69;53.35;100797.13;691242;28;1316;-83
2022/04/21 01:04:52;;;;;;;4.90;4.40;;;;;;;6.74;53.17;100812.94;692821;28;1174;-83
2022/04/21 01:05:17;;;;;;;5.03;4.40;;;;;;;6.79;53.14;100822.69;693164;28;1263;-83
2022/04/21 01:05:37;;;;;;;8.35;4.60;;;;;;;6.77;53.18;100813.97;692510;28;1906;-84
2022/04/21 01:05:58;;;;;;;8.10;4.30;;;;;;;6.70;53.44;100801.50;685923;28;1335;-84
2022/04/21 01:06:19;;;;;;;7.80;4.18;;;;;;;6.71;53.29;100803.31;689391;28;1663;-84
2022/04/21 01:06:39;;;;;;;6.05;3.97;;;;;;;6.77;53.54;100808.78;693323;28;1288;-83
2022/04/21 01:07:08;;;;;;;7.25;4.20;;;;;;;6.73;53.28;100803.38;693309;28;1627;-84
2022/04/21 01:07:29;;;;;;;6.22;4.00;;;;;;;6.76;53.22;100812.16;688628;28;1400;-83
2022/04/21 01:07:49;;;;;;;4.57;3.80;;;;;;;6.69;53.07;100799.72;690431;28;1239;-84
2022/04/21 01:08:22;;;;;;;4.90;4.00;;;;;;;6.71;53.10;100805.91;693286;28;1267;-84
2022/04/21 01:08:42;;;;;;;4.30;3.90;;;;;;;6.73;53.08;100809.44;693046;28;1121;-84
2022/04/21 01:09:03;;;;;;;4.30;3.90;;;;;;;6.67;53.16;100796.16;689990;28;1591;-83
2022/04/21 01:09:23;;;;;;;4.20;3.90;;;;;;;6.66;53.30;100790.09;692782;28;1622;-83
2022/04/21 01:09:44;;;;;;;4.53;4.10;;;;;;;6.69;53.23;100800.59;692698;28;1143;-84
2022/04/21 01:10:06;;;;;;;5.30;4.40;;;;;;;6.76;53.12;100812.16;693240;28;1420;-83
2022/04/21 01:10:28;;;;;;;6.03;4.50;;;;;;;6.73;53.04;100800.78;690365;28;1319;-83
2022/04/21 01:10:49;;;;;;;5.13;4.40;;;;;;;6.69;53.21;100789.34;693069;28;1109;-84
2022/04/21 01:11:10;;;;;;;4.60;4.10;;;;;;;6.73;53.08;100796.47;687676;28;1085;-84
2022/04/21 01:11:30;;;;;;;4.60;4.20;;;;;;;6.69;53.32;100797.13;687840;28;1092;-83
2022/04/21 01:11:51;;;;;;;4.50;4.10;;;;;;;6.71;53.02;100792.94;690463;28;997;-83
2022/04/21 01:12:13;;;;;;;4.82;4.43;;;;;;;6.73;53.23;100801.66;690582;28;1241;-84
2022/04/21 01:12:34;;;;;;;4.97;4.50;;;;;;;6.74;53.76;100806.03;687588;28;1296;-83
2022/04/21 01:12:55;;;;;;;5.20;4.60;;;;;;;6.74;53.47;100803.44;687768;28;1342;-84
2022/04/21 01:13:16;;;;;;;5.43;4.55;;;;;;;6.68;53.54;100796.25;690578;28;968;-83
2022/04/21 01:13:37;;;;;;;5.18;4.43;;;;;;;6.76;53.28;100811.28;691886;28;1462;-84
2022/04/21 01:13:59;;;;;;;5.87;4.60;;;;;;;6.65;53.33;100787.44;689178;28;1730;-83
2022/04/21 01:14:20;;;;;;;6.38;4.78;;;;;;;6.73;53.22;100796.47;687685;28;1217;-83
2022/04/21 01:14:41;;;;;;;6.07;4.80;;;;;;;6.68;53.08;100798.84;695534;28;1178;-84
2022/04/21 01:15:02;;;;;;;5.60;4.38;;;;;;;6.68;53.54;100790.16;693233;28;1063;-84
2022/04/21 01:15:23;;;;;;;5.00;4.23;;;;;;;6.73;53.61;100799.06;690420;28;1279;-84
2022/04/21 01:15:43;;;;;;;5.38;4.13;;;;;;;6.67;53.39;100785.78;689961;28;1415;-84
2022/04/21 01:16:06;;;;;;;5.27;4.30;;;;;;;6.71;53.04;100792.94;687864;28;1090;-84
2022/04/21 01:16:26;;;;;;;4.78;4.20;;;;;;;6.73;53.31;100801.66;687796;28;1068;-83
2022/04/21 01:16:47;;;;;;;5.70;4.10;;;;;;;6.66;53.46;100781.41;692477;28;1118;-83
2022/04/21 01:17:09;;;;;;;6.40;4.10;;;;;;;6.73;53.17;100791.28;692446;28;1189;-84
2022/04/21 01:17:37;;;;;;;5.95;4.20;;;;;;;6.77;53.17;100803.59;702873;27;22088;-83
2022/04/21 01:17:58;;;;;;;5.72;4.60;;;;;;;6.71;53.19;100792.94;697274;28;1632;-83
2022/04/21 01:18:27;;;;;;;5.93;4.70;;;;;;;6.74;53.17;100806.03;689940;28;1270;-83
2022/04/21 01:18:48;;;;;;;5.82;4.40;;;;;;;6.72;53.15;100789.50;692707;28;1231;-83
2022/04/21 01:19:09;;;;;;;5.90;4.23;;;;;;;6.71;53.24;100785.16;692558;28;940;-83
2022/04/21 01:19:29;;;;;;;6.85;4.30;;;;;;;6.71;53.16;100787.75;690530;28;1285;-83
2022/04/21 01:19:50;;;;;;;6.60;4.57;;;;;;;6.79;52.90;100808.81;690647;28;1666;-84
2022/04/21 01:20:14;;;;;;;5.13;4.70;;;;;;;6.70;53.05;100783.34;692821;28;1056;-83
2022/04/21 01:20:35;;;;;;;5.00;4.60;;;;;;;6.71;53.10;100787.75;690600;28;1551;-83
2022/04/21 01:20:55;;;;;;;4.70;4.30;;;;;;;6.69;52.98;100778.97;695516;28;780;-83
2022/04/21 01:21:16;;;;;;;5.00;4.50;;;;;;;6.69;52.88;100790.22;692786;28;977;-83
2022/04/21 01:21:36;;;;;;;5.57;4.55;;;;;;;6.66;53.06;100784.00;694734;28;1111;-83
2022/04/21 01:21:57;;;;;;;6.80;4.60;;;;;;;6.65;52.87;100783.16;693090;28;1235;-83
2022/04/21 01:22:18;;;;;;;6.05;4.35;;;;;;;6.67;52.99;100791.88;693641;28;1242;-83
2022/04/21 01:22:38;;;;;;;4.90;4.00;;;;;;;6.64;52.88;100785.66;694825;28;1561;-83
2022/04/21 01:22:59;;;;;;;4.20;3.90;;;;;;;6.65;52.86;100788.34;692818;28;1298;-83
2022/04/21 01:23:19;;;;;;;7.50;4.20;;;;;;;6.62;53.19;100787.31;692703;28;1086;-82
2022/04/21 01:23:40;;;;;;;8.23;4.30;;;;;;;6.64;53.17;100783.06;691874;28;1343;-83
2022/04/21 01:24:01;;;;;;;8.65;4.35;;;;;;;6.61;53.37;100781.22;690301;28;1446;-83
2022/04/21 01:24:22;;;;;;;5.03;4.28;;;;;;;6.62;53.16;100783.00;689878;28;1123;-83
2022/04/21 01:24:42;;;;;;;5.25;4.50;;;;;;;6.67;53.10;100790.97;689857;28;1836;-83
2022/04/21 01:25:03;;;;;;;4.97;4.33;;;;;;;6.63;53.51;100792.53;690129;28;1046;-83
2022/04/21 01:25:24;;;;;;;4.47;4.07;;;;;;;6.67;53.27;100793.56;687893;28;1134;-83
2022/04/21 01:25:45;;;;;;;4.32;3.92;;;;;;;6.60;53.31;100783.75;695380;28;1319;-83
2022/04/21 01:26:05;;;;;;;4.47;4.07;;;;;;;6.67;53.50;100796.16;695508;28;1159;-83
2022/04/21 01:26:28;;;;;;;5.40;4.13;;;;;;;6.57;53.58;100789.69;694532;28;1311;-83
2022/04/21 01:26:49;;;;;;;7.22;4.28;;;;;;;6.55;53.54;100774.06;692571;28;1375;-83
2022/04/21 01:27:10;;;;;;;6.97;4.32;;;;;;;6.60;53.55;100791.50;692765;28;1033;-83
2022/04/21 01:27:33;;;;;;;8.32;4.80;;;;;;;6.62;53.63;100789.91;692691;28;1306;-83
2022/04/21 01:28:00;;;;;;;6.28;4.60;;;;;;;6.64;53.67;100799.50;692801;28;905;-83
2022/04/21 01:28:21;;;;;;;5.15;4.65;;;;;;;6.58;53.46;100781.97;695545;28;1075;-83
2022/04/21 01:28:43;;;;;;;4.90;4.40;;;;;;;6.53;53.30;100783.50;689923;28;1611;-83
2022/04/21 01:29:05;;;;;;;5.45;4.50;;;;;;;6.63;53.91;100800.31;692901;28;1033;-83
2022/04/21 01:29:27;;;;;;;6.10;4.40;;;;;;;6.57;53.71;100790.56;695136;28;1289;-83
2022/04/21 01:29:48;;;;;;;8.38;4.55;;;;;;;6.61;53.84;100793.28;692277;28;1245;-83
2022/04/21 01:30:11;;;;;;;8.23;4.50;;;;;;;6.53;53.77;100788.69;693168;28;1718;-83
2022/04/21 01:30:31;;;;;;;7.03;4.30;;;;;;;6.61;53.56;100801.97;693987;28;1239;-82
2022/04/21 01:30:55;;;;;;;7.55;4.53;;;;;;;6.51;53.86;100785.09;695501;28;1087;-83
2022/04/21 01:31:22;;;;;;;10.45;4.65;;;;;;;6.49;53.57;100780.66;689856;28;1327;-83
2022/04/21 01:31:43;;;;;;;13.52;4.70;;;;;;;6.60;53.72;100799.28;692464;28;1539;-83
2022/04/21 01:32:04;;;;;;;12.45;4.80;;;;;;;6.47;53.75;100778.03;692703;28;1281;-83
2022/04/21 01:32:24;;;;;;;14.70;4.97;;;;;;;6.50;53.99;100783.34;690323;28;1167;-83
2022/04/21 01:32:48;;;;;;;17.83;5.20;;;;;;;6.43;53.91;100777.00;692734;28;1042;-83
2022/04/21 01:33:08;;;;;;;17.20;5.20;;;;;;;6.52;53.91;100781.69;690042;28;1355;-82
2022/04/21 01:33:29;;;;;;;12.18;5.28;;;;;;;6.49;53.88;100784.16;692666;28;1190;-82
2022/04/21 01:33:50;;;;;;;15.10;5.20;;;;;;;6.47;53.82;100779.72;690072;28;905;-83
2022/04/21 01:34:10;;;;;;;18.27;5.68;;;;;;;6.57;53.99;100797.47;695400;28;1242;-83
2022/04/21 01:34:31;;;;;;;20.53;5.43;;;;;;;6.46;54.07;100776.25;692668;28;1118;-83
2022/04/21 01:34:51;;;;;;;15.23;5.10;;;;;;;6.43;54.10;100776.09;695532;28;1311;-83
2022/04/21 01:35:12;;;;;;;14.07;4.70;;;;;;;6.51;53.88;100790.28;692618;28;1186;-83
2022/04/21 01:35:33;;;;;;;12.30;4.60;;;;;;;6.55;54.13;100797.41;692589;28;1264;-82
2022/04/21 01:35:53;;;;;;;11.97;4.50;;;;;;;6.48;54.19;100786.66;695601;28;813;-83
2022/04/21 01:36:14;;;;;;;9.82;4.40;;;;;;;6.43;54.09;100773.50;695405;28;1019;-83
2022/04/21 01:36:35;;;;;;;8.13;4.40;;;;;;;6.47;53.83;100788.41;694125;28;1289;-83
2022/04/21 01:41:10;;;;;;;7.32;4.22;;;;;;;6.43;54.37;100782.19;698224;28;958;-83
2022/04/21 01:41:30;;;;;;;6.28;4.30;;;;;;;6.40;54.20;100774.25;692705;28;1326;-83
2022/04/21 01:41:51;;;;;;;4.50;4.15;;;;;;;6.42;54.21;100771.72;687227;28;1399;-82
2022/04/21 01:42:16;;;;;;;4.50;4.10;;;;;;;6.44;54.45;100780.47;689974;28;1307;-83
2022/04/21 01:42:37;;;;;;;5.10;4.30;;;;;;;6.42;54.21;100774.31;694410;28;1296;-83
2022/04/21 01:42:57;;;;;;;6.80;4.70;;;;;;;6.42;54.28;100771.72;692833;28;1061;-83
2022/04/21 01:43:18;;;;;;;7.10;4.68;;;;;;;6.42;54.18;100774.31;689346;28;1274;-83
2022/04/21 01:43:41;;;;;;;5.87;4.43;;;;;;;6.38;54.44;100765.53;692594;28;1590;-83
2022/04/21 01:44:03;;;;;;;5.88;4.40;;;;;;;6.41;54.09;100767.38;689940;28;1234;-83
2022/04/21 01:44:23;;;;;;;6.18;4.40;;;;;;;6.38;53.86;100764.66;690162;28;1153;-83
2022/04/21 01:44:44;;;;;;;5.80;4.30;;;;;;;6.42;54.32;100769.13;691469;28;1273;-83
2022/04/21 01:45:05;;;;;;;5.32;4.05;;;;;;;6.39;54.10;100769.88;692791;28;1022;-83
2022/04/21 01:45:25;;;;;;;5.90;4.20;;;;;;;6.37;54.19;100762.84;692664;28;1080;-83
2022/04/21 01:45:46;;;;;;;5.60;4.40;;;;;;;6.40;54.40;100765.59;689909;28;1677;-83
2022/04/21 01:46:06;;;;;;;5.30;4.50;;;;;;;6.46;54.46;100771.06;687244;28;1346;-83
2022/04/21 01:46:27;;;;;;;6.37;4.80;;;;;;;6.37;54.17;100762.84;691018;28;1311;-83
2022/04/21 01:46:48;;;;;;;8.57;5.00;;;;;;;6.38;54.34;100767.25;695202;28;1807;-83
2022/04/21 01:47:09;;;;;;;8.63;4.88;;;;;;;6.35;54.29;100751.53;695402;28;975;-83
2022/04/21 01:47:30;;;;;;;7.43;4.55;;;;;;;6.40;54.11;100765.59;692620;28;1402;-82
2022/04/21 01:47:50;;;;;;;4.83;4.33;;;;;;;6.33;54.42;100760.97;700323;28;1715;-84
2022/04/21 01:48:11;;;;;;;5.22;4.72;;;;;;;6.39;54.49;100761.25;695533;28;1326;-83
2022/04/21 01:48:32;;;;;;;5.30;4.80;;;;;;;6.39;54.50;100763.84;695366;28;1107;-83
2022/04/21 01:48:53;;;;;;;5.38;4.70;;;;;;;6.35;54.37;100761.91;690091;28;1489;-83
2022/04/21 01:49:14;;;;;;;4.75;4.13;;;;;;;6.30;54.64;100749.63;690013;28;929;-83
2022/04/21 01:49:34;;;;;;;4.90;4.40;;;;;;;6.38;54.46;100773.28;694243;28;1319;-82
2022/04/21 01:49:55;;;;;;;4.60;4.20;;;;;;;6.33;54.42;100758.38;695233;28;811;-83
2022/04/21 01:50:22;;;;;;;4.50;4.10;;;;;;;6.34;54.24;100760.13;692580;28;1097;-83